< < Back
Terminal Aerodrome Forecast


Current Version              Previous Versions:   1  2  3  4  5  6  7  8  9  

Terminal Aerodrome Forecast

299
FTUS42 KFFC 012333
TAFCSG
TAF
KCSG 012333Z 0200/0224 23008KT P6SM BKN050
     FM020200 35006KT P6SM FEW250
     FM021200 04005KT P6SM FEW250
     FM021600 07008KT P6SM SCT040
     FM022200 03005KT P6SM FEW060=

Latest METAR

131
SAUS70 KWBC 021200 RRA
MTRCSG
METAR KCSG 021151Z AUTO 00000KT 10SM CLR 23/21 A2991 RMK AO2 SLP122
T02280206 10244 20222 51010


USA.gov is the U.S. government's official web portal to all federal, state and local government web resources and services.